createdAt,value
2019-05-23T00:02:22.920Z,1015.79
2019-05-23T00:03:23.070Z,1015.74
2019-05-23T00:07:23.406Z,1015.75
2019-05-23T00:08:23.407Z,1015.76
2019-05-23T00:09:23.440Z,1015.74
2019-05-23T00:16:13.589Z,1015.7
2019-05-23T00:17:23.614Z,1015.7
2019-05-23T00:18:23.635Z,1015.77
2019-05-23T00:19:23.673Z,1015.59
2019-05-23T00:23:03.732Z,1015.62
2019-05-23T00:23:43.732Z,1015.62
2019-05-23T00:25:03.741Z,1015.62
2019-05-23T00:26:13.861Z,1015.61
2019-05-23T00:27:23.851Z,1015.59
2019-05-23T00:28:23.874Z,1015.56
2019-05-23T00:29:23.885Z,1015.56
2019-05-23T00:30:33.945Z,1015.5
2019-05-23T00:31:34.005Z,1015.5
2019-05-23T00:32:23.972Z,1015.48
2019-05-23T00:33:24.022Z,1015.41
2019-05-23T00:34:24.034Z,1015.51
2019-05-23T00:35:34.032Z,1015.55
2019-05-23T00:38:04.185Z,1015.42
2019-05-23T00:41:14.166Z,1015.45
2019-05-23T00:42:24.190Z,1015.46
2019-05-23T00:43:14.178Z,1015.5
2019-05-23T00:44:24.319Z,1015.53
2019-05-23T00:47:24.392Z,1015.49
2019-05-23T00:48:24.511Z,1015.52
2019-05-23T00:49:24.379Z,1015.56
2019-05-23T00:52:54.478Z,1015.52
2019-05-23T00:53:54.523Z,1015.51
2019-05-23T00:54:54.533Z,1015.39
2019-05-23T00:56:14.544Z,1015.44
2019-05-23T00:57:24.564Z,1015.48
2019-05-23T00:58:24.589Z,1015.44
2019-05-23T00:59:27.338Z,1015.44
2019-05-23T01:02:55.206Z,1015.53
2019-05-23T01:06:55.196Z,1015.53
2019-05-23T01:07:55.234Z,1015.58
2019-05-23T01:08:55.274Z,1015.59
2019-05-23T01:09:55.260Z,1015.57
2019-05-23T01:11:15.295Z,1015.55
2019-05-23T01:12:25.330Z,1015.55
2019-05-23T01:13:25.325Z,1015.52
2019-05-23T01:14:25.379Z,1015.44
2019-05-23T01:16:55.411Z,1015.55
2019-05-23T01:17:55.432Z,1015.58
2019-05-23T01:21:55.618Z,1015.54
2019-05-23T01:22:55.570Z,1015.58
2019-05-23T01:23:55.598Z,1015.56
2019-05-23T01:24:55.609Z,1015.57
2019-05-23T01:26:15.627Z,1015.48
2019-05-23T01:27:25.649Z,1015.53
2019-05-23T01:28:25.730Z,1015.55
2019-05-23T01:29:25.718Z,1015.52
2019-05-23T01:30:35.749Z,1015.54
2019-05-23T01:31:35.737Z,1015.49
2019-05-23T01:32:25.765Z,1015.51
2019-05-23T01:33:25.775Z,1015.5
2019-05-23T01:34:25.809Z,1015.53
2019-05-23T01:36:35.890Z,1015.48
2019-05-23T01:37:25.860Z,1015.55
2019-05-23T01:38:25.869Z,1015.54
2019-05-23T01:39:25.923Z,1015.52
2019-05-23T01:40:35.956Z,1015.46
2019-05-23T01:41:35.941Z,1015.52
2019-05-23T01:42:25.960Z,1015.48
2019-05-23T01:43:25.960Z,1015.44
2019-05-23T01:44:26.176Z,1015.49
2019-05-23T01:45:36.028Z,1015.52
2019-05-23T01:46:36.063Z,1015.57
2019-05-23T01:47:26.100Z,1015.47
2019-05-23T01:48:26.199Z,1015.4
2019-05-23T01:49:26.199Z,1015.54
2019-05-23T01:50:36.271Z,1015.51
2019-05-23T01:51:36.275Z,1015.51
2019-05-23T01:52:26.382Z,1015.49
2019-05-23T01:53:26.388Z,1015.49
2019-05-23T01:54:26.402Z,1015.59
2019-05-23T01:55:36.963Z,1015.57
2019-05-23T01:57:26.460Z,1015.56
2019-05-23T01:58:26.494Z,1015.58
2019-05-23T01:59:26.507Z,1015.57
2019-05-23T02:00:36.851Z,1015.5
2019-05-23T02:02:26.757Z,1015.52
2019-05-23T02:03:26.809Z,1015.54
2019-05-23T02:04:26.881Z,1015.58
2019-05-23T02:06:38.074Z,1015.55
2019-05-23T02:07:26.964Z,1015.63
2019-05-23T02:08:26.969Z,1015.59
2019-05-23T02:09:26.989Z,1015.63
2019-05-23T02:12:27.263Z,1015.63
2019-05-23T02:13:27.256Z,1015.69
2019-05-23T02:14:27.272Z,1015.63
2019-05-23T02:16:57.321Z,1015.73
2019-05-23T02:17:57.322Z,1015.76
2019-05-23T02:18:57.341Z,1015.71
2019-05-23T02:24:07.449Z,1015.75
2019-05-23T02:25:17.425Z,1015.72
2019-05-23T02:26:17.452Z,1015.73
2019-05-23T02:27:27.519Z,1015.82
2019-05-23T02:28:27.559Z,1015.76
2019-05-23T02:29:27.568Z,1015.73
2019-05-23T02:31:27.742Z,1015.69
2019-05-23T02:32:28.875Z,1015.76
2019-05-23T02:33:27.751Z,1015.75
2019-05-23T02:34:27.768Z,1015.75
2019-05-23T02:36:27.802Z,1015.74
2019-05-23T02:37:27.809Z,1015.69
2019-05-23T02:38:27.826Z,1015.72
2019-05-23T02:39:27.836Z,1015.6
2019-05-23T02:41:27.903Z,1015.69
2019-05-23T02:42:27.888Z,1015.72
2019-05-23T02:43:28.564Z,1015.68
2019-05-23T02:44:28.028Z,1015.63
2019-05-23T02:46:28.087Z,1015.62
2019-05-23T02:47:28.190Z,1015.73
2019-05-23T02:48:28.211Z,1015.63
2019-05-23T02:49:28.219Z,1015.67
2019-05-23T02:51:28.287Z,1015.62
2019-05-23T02:52:28.289Z,1015.62
2019-05-23T02:53:28.301Z,1015.67
2019-05-23T02:54:28.424Z,1015.61
2019-05-23T02:56:28.397Z,1015.7
2019-05-23T02:57:28.417Z,1015.73
2019-05-23T02:58:28.427Z,1015.61
2019-05-23T02:59:28.439Z,1015.63
2019-05-23T03:01:28.506Z,1015.7
2019-05-23T03:02:28.524Z,1015.71
2019-05-23T03:03:28.606Z,1015.71
2019-05-23T03:04:28.654Z,1015.67
2019-05-23T03:06:28.699Z,1015.63
2019-05-23T03:07:28.740Z,1015.7
2019-05-23T03:08:28.743Z,1015.63
2019-05-23T03:09:28.765Z,1015.7
2019-05-23T03:11:28.928Z,1015.69
2019-05-23T03:12:28.853Z,1015.63
2019-05-23T03:13:28.851Z,1015.71
2019-05-23T03:14:28.864Z,1015.74
2019-05-23T03:16:29.053Z,1015.76
2019-05-23T03:17:28.948Z,1015.73
2019-05-23T03:18:33.354Z,1015.7
2019-05-23T03:19:48.988Z,1015.74
2019-05-23T03:20:58.994Z,1015.78
2019-05-23T03:21:59.010Z,1015.73
2019-05-23T03:22:59.025Z,1015.67
2019-05-23T03:23:59.097Z,1015.69
2019-05-23T03:25:19.189Z,1015.69
2019-05-23T03:26:29.213Z,1015.71
2019-05-23T03:27:29.265Z,1015.74
2019-05-23T03:28:29.311Z,1015.76
2019-05-23T03:29:49.343Z,1015.67
2019-05-23T03:31:24.981Z,1015.74
2019-05-23T03:31:59.411Z,1015.71
2019-05-23T03:32:59.490Z,1015.71
2019-05-23T03:33:59.516Z,1015.71
2019-05-23T03:35:19.487Z,1015.67
2019-05-23T03:36:19.498Z,1015.71
2019-05-23T03:37:29.511Z,1015.72
2019-05-23T03:38:29.548Z,1015.76
2019-05-23T03:39:49.568Z,1015.73
2019-05-23T03:40:59.606Z,1015.74
2019-05-23T03:41:59.609Z,1015.73
2019-05-23T03:42:59.670Z,1015.7
2019-05-23T03:43:59.698Z,1015.74
2019-05-23T03:45:19.691Z,1015.58
2019-05-23T03:46:19.751Z,1015.62
2019-05-23T03:47:29.765Z,1015.57
2019-05-23T03:48:29.838Z,1015.62
2019-05-23T03:49:49.855Z,1015.58
2019-05-23T03:50:59.887Z,1015.56
2019-05-23T03:51:59.929Z,1015.58
2019-05-23T03:53:01.091Z,1015.67
2019-05-23T03:53:59.967Z,1015.63
2019-05-23T03:55:19.999Z,1015.63
2019-05-23T03:56:20.015Z,1015.6
2019-05-23T03:57:30.025Z,1015.58
2019-05-23T03:58:30.073Z,1015.63
2019-05-23T04:01:45.872Z,1015.61
2019-05-23T04:02:30.178Z,1015.56
2019-05-23T04:03:30.211Z,1015.67
2019-05-23T04:06:30.359Z,1015.57
2019-05-23T04:09:50.419Z,1015.72
2019-05-23T04:11:00.493Z,1015.68
2019-05-23T04:12:00.506Z,1015.6
2019-05-23T04:13:00.547Z,1015.59
2019-05-23T04:14:00.592Z,1015.57
2019-05-23T04:20:20.700Z,1015.62
2019-05-23T04:21:30.695Z,1015.7
2019-05-23T04:22:30.739Z,1015.68
2019-05-23T04:23:30.748Z,1015.68
2019-05-23T04:26:30.905Z,1015.69
2019-05-23T04:27:30.905Z,1015.7
2019-05-23T04:31:01.017Z,1015.76
2019-05-23T04:32:07.552Z,1015.74
2019-05-23T04:33:01.183Z,1015.68
2019-05-23T04:34:01.204Z,1015.73
2019-05-23T04:40:21.331Z,1015.72
2019-05-23T04:45:31.530Z,1015.72
2019-05-23T04:50:31.727Z,1015.63
2019-05-23T04:51:21.734Z,1015.75
2019-05-23T04:52:21.867Z,1015.62
2019-05-23T04:54:51.750Z,1015.67
2019-05-23T04:56:01.757Z,1015.72
2019-05-23T04:57:01.776Z,1015.68
2019-05-23T04:58:04.388Z,1015.72
2019-05-23T04:59:01.816Z,1015.72
2019-05-23T05:00:21.915Z,1015.7
2019-05-23T05:05:32.019Z,1015.72
2019-05-23T05:10:32.217Z,1015.71
2019-05-23T05:11:32.181Z,1015.68
2019-05-23T05:12:32.229Z,1015.71
2019-05-23T05:13:32.269Z,1015.74
2019-05-23T05:14:52.520Z,1015.75
2019-05-23T05:16:02.319Z,1015.75
2019-05-23T05:17:02.316Z,1015.7
2019-05-23T05:18:02.384Z,1015.74
2019-05-23T05:19:02.388Z,1015.75
2019-05-23T05:20:22.478Z,1015.76
2019-05-23T05:25:32.573Z,1015.79
2019-05-23T05:26:22.616Z,1015.78
2019-05-23T05:27:22.709Z,1015.78
2019-05-23T05:28:32.889Z,1015.73
2019-05-23T05:29:52.772Z,1015.75
2019-05-23T05:31:02.853Z,1015.77
2019-05-23T05:32:03.806Z,1015.88
2019-05-23T05:33:02.838Z,1015.78
2019-05-23T05:34:02.841Z,1015.82
2019-05-23T05:35:22.885Z,1015.83
2019-05-23T05:36:32.893Z,1015.8
2019-05-23T05:40:02.938Z,1015.78
2019-05-23T05:42:03.010Z,1015.8
2019-05-23T05:43:03.018Z,1015.77
2019-05-23T05:44:03.147Z,1015.87
2019-05-23T05:46:23.230Z,1015.87
2019-05-23T05:47:33.208Z,1015.84
2019-05-23T05:48:33.230Z,1015.92
2019-05-23T05:49:53.257Z,1015.83
2019-05-23T05:51:03.363Z,1015.92
2019-05-23T05:52:03.345Z,1015.9
2019-05-23T05:53:03.356Z,1015.9
2019-05-23T05:54:03.372Z,1015.93
2019-05-23T05:55:23.380Z,1015.95
2019-05-23T05:56:23.549Z,1015.96
2019-05-23T05:57:33.425Z,1015.99
2019-05-23T05:58:33.469Z,1015.9
2019-05-23T05:59:53.522Z,1015.94
2019-05-23T06:01:03.538Z,1015.96
2019-05-23T06:05:33.661Z,1016.01
2019-05-23T06:07:33.744Z,1016.1
2019-05-23T06:08:34.896Z,1016
2019-05-23T06:09:53.773Z,1016.01
2019-05-23T06:11:03.794Z,1015.95
2019-05-23T06:12:03.851Z,1016.04
2019-05-23T06:13:03.893Z,1016.03
2019-05-23T06:14:03.874Z,1016.09
2019-05-23T06:15:23.886Z,1016.06
2019-05-23T06:16:23.896Z,1016.09
2019-05-23T06:17:33.899Z,1016.04
2019-05-23T06:18:33.934Z,1016.05
2019-05-23T06:19:55.095Z,1016.11
2019-05-23T06:21:04.041Z,1016.07
2019-05-23T06:22:04.061Z,1016.06
2019-05-23T06:23:04.117Z,1016.07
2019-05-23T06:24:04.199Z,1016.13
2019-05-23T06:25:24.211Z,1016.09
2019-05-23T06:26:24.246Z,1016.04
2019-05-23T06:27:34.364Z,1016.13
2019-05-23T06:28:34.297Z,1016.03
2019-05-23T06:29:54.351Z,1016.02
2019-05-23T06:31:04.363Z,1016.06
2019-05-23T06:32:04.399Z,1016.01
2019-05-23T06:33:21.696Z,1016.06
2019-05-23T06:34:04.481Z,1016.04
2019-05-23T06:35:24.496Z,1016.05
2019-05-23T06:36:24.512Z,1016.08
2019-05-23T06:37:34.661Z,1016.09
2019-05-23T06:38:34.666Z,1016.07
2019-05-23T06:39:54.722Z,1016.1
2019-05-23T06:41:04.716Z,1016.05
2019-05-23T06:42:04.738Z,1016
2019-05-23T06:43:05.060Z,1016.02
2019-05-23T06:44:04.833Z,1016.04
2019-05-23T06:45:24.850Z,1015.99
2019-05-23T06:46:24.854Z,1016.05
2019-05-23T06:47:34.906Z,1015.99
2019-05-23T06:48:34.942Z,1015.99
2019-05-23T06:49:54.982Z,1016.03
2019-05-23T06:51:05.372Z,1016.06
2019-05-23T06:52:05.099Z,1016.01
2019-05-23T06:53:05.141Z,1016.05
2019-05-23T06:54:26.315Z,1016.01
2019-05-23T06:55:35.141Z,1016.09
2019-05-23T06:56:25.152Z,1016.08
2019-05-23T06:57:35.169Z,1016.04
2019-05-23T06:58:35.215Z,1016.02
2019-05-23T06:59:55.226Z,1016.02
2019-05-23T07:01:05.243Z,1016.05
2019-05-23T07:02:05.253Z,1016.04
2019-05-23T07:03:05.271Z,1016.11
2019-05-23T07:04:25.355Z,1016.16
2019-05-23T07:05:35.349Z,1016.06
2019-05-23T07:06:25.355Z,1016.06
2019-05-23T07:07:35.359Z,1016.11
2019-05-23T07:08:35.393Z,1016.13
2019-05-23T07:09:55.412Z,1016.02
2019-05-23T07:11:05.470Z,1016.08
2019-05-23T07:12:05.498Z,1016.1
2019-05-23T07:13:05.489Z,1016.12
2019-05-23T07:14:25.558Z,1016.08
2019-05-23T07:15:35.549Z,1016.11
2019-05-23T07:16:25.563Z,1016.24
2019-05-23T07:17:35.585Z,1016.13
2019-05-23T07:18:35.593Z,1016.12
2019-05-23T07:19:55.626Z,1016.15
2019-05-23T07:21:05.672Z,1016.14
2019-05-23T07:22:05.678Z,1016.06
2019-05-23T07:24:35.850Z,1016.12
2019-05-23T07:25:35.842Z,1016.07
2019-05-23T07:26:25.850Z,1016.08
2019-05-23T07:27:35.920Z,1016.1
2019-05-23T07:28:35.943Z,1016.12
2019-05-23T07:29:56.595Z,1016.14
2019-05-23T07:31:06.006Z,1016.05
2019-05-23T07:32:06.029Z,1016.06
2019-05-23T07:33:06.063Z,1016.15
2019-05-23T07:34:26.119Z,1016.07
2019-05-23T07:35:36.108Z,1016.15
2019-05-23T07:36:26.095Z,1016.09
2019-05-23T07:37:36.121Z,1016.16
2019-05-23T07:38:36.137Z,1016.07
2019-05-23T07:39:36.226Z,1016.11
2019-05-23T07:40:36.166Z,1016.09
2019-05-23T07:41:36.181Z,1016.07
2019-05-23T07:42:36.188Z,1016.07
2019-05-23T07:43:36.228Z,1016.1
2019-05-23T07:44:56.253Z,1016.07
2019-05-23T07:46:06.414Z,1016.04
2019-05-23T07:47:07.493Z,1016.08
2019-05-23T07:48:06.297Z,1016.07
2019-05-23T07:49:26.319Z,1016.08
2019-05-23T07:50:36.373Z,1016.11
2019-05-23T07:51:29.211Z,1016.07
2019-05-23T07:52:36.418Z,1016.01
2019-05-23T07:53:36.425Z,1016
2019-05-23T07:54:56.497Z,1015.94
2019-05-23T07:56:26.474Z,1016.02
2019-05-23T07:57:36.470Z,1016.04
2019-05-23T07:58:17.687Z,1016.03
2019-05-23T08:01:36.687Z,1016.08
2019-05-23T08:02:36.712Z,1016.04
2019-05-23T08:03:26.851Z,1016
2019-05-23T08:04:36.837Z,1016.06
2019-05-23T08:05:36.749Z,1016.02
2019-05-23T08:06:56.834Z,1015.94
2019-05-23T08:07:56.992Z,1015.99
2019-05-23T08:09:07.064Z,1016.07
2019-05-23T08:10:06.987Z,1016.03
2019-05-23T08:11:36.979Z,1016.06
2019-05-23T08:12:26.983Z,1016.01
2019-05-23T08:13:37.007Z,1016.01
2019-05-23T08:14:37.023Z,1015.97
2019-05-23T08:15:37.084Z,1016.04
2019-05-23T08:16:57.063Z,1016.05
2019-05-23T08:17:57.088Z,1016.06
2019-05-23T08:18:57.081Z,1015.99
2019-05-23T08:19:57.118Z,1016.09
2019-05-23T08:22:07.170Z,1016.09
2019-05-23T08:23:07.217Z,1016.06
2019-05-23T08:24:07.212Z,1016.13
2019-05-23T08:25:07.248Z,1016.1
2019-05-23T08:26:37.298Z,1016.09
2019-05-23T08:28:07.312Z,1016.03
2019-05-23T08:31:27.502Z,1016.04
2019-05-23T08:32:27.396Z,1016.02
2019-05-23T08:33:37.408Z,1016.06
2019-05-23T08:34:41.836Z,1016.03
2019-05-23T08:35:37.447Z,1016.04
2019-05-23T08:36:57.478Z,1015.94
2019-05-23T08:39:07.487Z,1015.96
2019-05-23T08:40:07.515Z,1015.94
2019-05-23T08:41:37.543Z,1015.95
2019-05-23T08:42:27.582Z,1016.03
2019-05-23T08:43:37.744Z,1015.99
2019-05-23T08:44:37.701Z,1015.94
2019-05-23T08:45:37.710Z,1015.99
2019-05-23T08:46:57.731Z,1015.98
2019-05-23T08:47:57.801Z,1015.93
2019-05-23T08:50:07.831Z,1015.96
2019-05-23T08:51:28.067Z,1015.87
2019-05-23T08:52:28.073Z,1015.91
2019-05-23T08:53:38.117Z,1015.92
2019-05-23T08:54:38.264Z,1015.89
2019-05-23T08:55:38.186Z,1015.92
2019-05-23T08:56:58.218Z,1015.96
2019-05-23T08:57:58.334Z,1015.84
2019-05-23T08:58:58.866Z,1015.86
2019-05-23T09:01:28.326Z,1015.85
2019-05-23T09:02:28.338Z,1015.85
2019-05-23T09:03:38.388Z,1015.85
2019-05-23T09:04:38.421Z,1015.77
2019-05-23T09:05:38.410Z,1015.85
2019-05-23T09:06:58.662Z,1015.85
2019-05-23T09:09:27.369Z,1015.87
2019-05-23T09:10:08.521Z,1015.79
2019-05-23T09:11:38.624Z,1015.84
2019-05-23T09:16:38.744Z,1015.9
2019-05-23T09:17:28.755Z,1015.83
2019-05-23T09:18:38.764Z,1015.86
2019-05-23T09:19:38.867Z,1015.87
2019-05-23T09:20:58.857Z,1015.88
2019-05-23T09:21:58.866Z,1015.83
2019-05-23T09:26:38.989Z,1015.95
2019-05-23T09:27:29.086Z,1015.94
2019-05-23T09:28:39.123Z,1015.93
2019-05-23T09:29:39.076Z,1015.87
2019-05-23T09:30:59.166Z,1015.82
2019-05-23T09:31:59.125Z,1015.82
2019-05-23T09:33:09.156Z,1015.88
2019-05-23T09:34:09.175Z,1015.81
2019-05-23T09:35:19.967Z,1015.8
2019-05-23T09:36:29.210Z,1015.82
2019-05-23T09:37:29.246Z,1015.79
2019-05-23T09:38:39.247Z,1015.89
2019-05-23T09:39:39.264Z,1015.82
2019-05-23T09:40:59.283Z,1015.85
2019-05-23T09:41:59.398Z,1015.8
2019-05-23T09:43:09.485Z,1015.86
2019-05-23T09:44:09.489Z,1015.85
2019-05-23T09:45:09.501Z,1015.82
2019-05-23T09:46:29.669Z,1015.83
2019-05-23T09:47:21.044Z,1015.86
2019-05-23T09:51:39.727Z,1015.83
2019-05-23T09:52:29.752Z,1015.93
2019-05-23T09:53:39.750Z,1015.84
2019-05-23T09:54:39.820Z,1015.84
2019-05-23T09:55:59.837Z,1015.76
2019-05-23T09:56:59.859Z,1015.8
2019-05-23T09:58:10.095Z,1015.82
2019-05-23T09:59:09.886Z,1015.8
2019-05-23T10:00:09.892Z,1015.75
2019-05-23T10:01:29.935Z,1015.79
2019-05-23T10:06:40.003Z,1015.76
2019-05-23T10:09:20.232Z,1015.76
2019-05-23T10:10:21.321Z,1015.72
2019-05-23T10:11:40.185Z,1015.77
2019-05-23T10:16:40.253Z,1015.72
2019-05-23T10:21:41.504Z,1015.71
2019-05-23T10:22:21.334Z,1015.72
2019-05-23T10:26:40.504Z,1015.68
2019-05-23T10:31:40.599Z,1015.59
2019-05-23T10:34:21.706Z,1015.71
2019-05-23T10:36:40.714Z,1015.6
2019-05-23T10:41:40.829Z,1015.56
2019-05-23T10:46:41.045Z,1015.48
2019-05-23T10:51:41.116Z,1015.44
2019-05-23T10:56:41.405Z,1015.35
2019-05-23T11:01:41.306Z,1015.29
2019-05-23T11:06:41.391Z,1015.23
2019-05-23T11:08:27.503Z,1015.24
2019-05-23T11:11:41.607Z,1015.24
2019-05-23T11:16:41.684Z,1015.19
2019-05-23T11:19:22.826Z,1015.19
2019-05-23T11:21:41.788Z,1015.25
2019-05-23T11:26:41.905Z,1015.16
2019-05-23T11:31:41.981Z,1015.11
2019-05-23T11:32:31.987Z,1015.07
2019-05-23T11:33:42.021Z,1015.08
2019-05-23T11:34:42.032Z,1015.07
2019-05-23T11:36:02.051Z,1015.11
2019-05-23T11:37:02.070Z,1015.13
2019-05-23T11:38:12.097Z,1015.1
2019-05-23T11:39:12.099Z,1014.99
2019-05-23T11:40:12.165Z,1015.09
2019-05-23T11:41:32.174Z,1015.04
2019-05-23T11:42:32.188Z,1014.99
2019-05-23T11:43:42.197Z,1015.06
2019-05-23T11:44:42.211Z,1014.97
2019-05-23T11:46:02.279Z,1015.04
2019-05-23T11:47:02.375Z,1015.07
2019-05-23T11:48:15.818Z,1015.07
2019-05-23T11:49:12.305Z,1014.98
2019-05-23T11:50:12.331Z,1015.03
2019-05-23T11:51:32.355Z,1014.92
2019-05-23T11:56:42.464Z,1014.93
2019-05-23T11:59:23.590Z,1014.79
2019-05-23T12:01:42.485Z,1014.82
2019-05-23T12:02:32.495Z,1014.78
2019-05-23T12:03:42.519Z,1014.83
2019-05-23T12:04:42.528Z,1014.8
2019-05-23T12:06:05.405Z,1014.81
2019-05-23T12:07:02.569Z,1014.73
2019-05-23T12:08:12.578Z,1014.68
2019-05-23T12:09:12.677Z,1014.73
2019-05-23T12:10:13.721Z,1014.73
2019-05-23T12:11:36.521Z,1014.66
2019-05-23T12:16:42.790Z,1014.66
2019-05-23T12:21:43.225Z,1014.71
2019-05-23T12:26:43.210Z,1014.8
2019-05-23T12:31:43.190Z,1014.69
2019-05-23T12:34:23.931Z,1014.6
2019-05-23T12:36:43.297Z,1014.54
2019-05-23T12:37:33.302Z,1014.55
2019-05-23T12:38:33.318Z,1014.48
2019-05-23T12:39:33.311Z,1014.48
2019-05-23T12:41:03.325Z,1014.45
2019-05-23T12:42:03.385Z,1014.44
2019-05-23T12:43:13.391Z,1014.46
2019-05-23T12:44:16.779Z,1014.46
2019-05-23T12:45:13.423Z,1014.44
2019-05-23T12:46:33.504Z,1014.45
2019-05-23T12:47:13.508Z,1014.46
2019-05-23T12:48:13.607Z,1014.49
2019-05-23T12:49:13.485Z,1014.39
2019-05-23T12:50:13.506Z,1014.43
2019-05-23T12:51:33.519Z,1014.49
2019-05-23T12:52:33.539Z,1014.39
2019-05-23T12:53:43.587Z,1014.37
2019-05-23T12:54:43.588Z,1014.32
2019-05-23T12:56:03.621Z,1014.37
2019-05-23T12:57:03.616Z,1014.33
2019-05-23T12:58:13.675Z,1014.33
2019-05-23T12:59:14.281Z,1014.3
2019-05-23T13:01:53.722Z,1014.38
2019-05-23T13:02:23.749Z,1014.35
2019-05-23T13:03:24.130Z,1014.37
2019-05-23T13:04:23.754Z,1014.34
2019-05-23T13:05:23.767Z,1014.25
2019-05-23T13:06:43.791Z,1014.33
2019-05-23T13:08:23.843Z,1014.3
2019-05-23T13:09:23.839Z,1014.27
2019-05-23T13:10:43.907Z,1014.27
2019-05-23T13:11:43.919Z,1014.24
2019-05-23T13:12:23.878Z,1014.24
2019-05-23T13:13:23.903Z,1014.27
2019-05-23T13:15:43.954Z,1014.24
2019-05-23T13:16:43.964Z,1014.2
2019-05-23T13:20:44.056Z,1014.16
2019-05-23T13:22:34.122Z,1014.2
2019-05-23T13:23:44.161Z,1014.2
2019-05-23T13:24:52.421Z,1014.2
2019-05-23T13:26:04.190Z,1014.16
2019-05-23T13:27:04.199Z,1014.11
2019-05-23T13:28:14.242Z,1014.07
2019-05-23T13:29:14.221Z,1014.05
2019-05-23T13:30:34.236Z,1014.1
2019-05-23T13:31:34.260Z,1014.03
2019-05-23T13:32:14.251Z,1014.05
2019-05-23T13:33:14.273Z,1014.11
2019-05-23T13:34:14.295Z,1014.1
2019-05-23T13:35:34.311Z,1014.11
2019-05-23T13:37:34.340Z,1014.04
2019-05-23T13:38:44.382Z,1014.05
2019-05-23T13:39:44.516Z,1014.02
2019-05-23T13:41:04.433Z,1014.03
2019-05-23T13:42:04.480Z,1014.06
2019-05-23T13:43:14.579Z,1014.03
2019-05-23T13:44:31.649Z,1013.99
2019-05-23T13:45:34.611Z,1014.02
2019-05-23T13:47:34.655Z,1013.97
2019-05-23T13:48:44.916Z,1014
2019-05-23T13:49:44.685Z,1014
2019-05-23T13:51:04.696Z,1013.91
2019-05-23T13:52:04.704Z,1013.93
2019-05-23T13:53:14.739Z,1013.97
2019-05-23T13:54:14.745Z,1013.87
2019-05-23T13:55:34.747Z,1013.88
2019-05-23T13:57:34.769Z,1013.95
2019-05-23T13:58:44.812Z,1013.91
2019-05-23T13:59:45.827Z,1013.84
2019-05-23T14:01:08.663Z,1013.86
2019-05-23T14:02:04.852Z,1013.86
2019-05-23T14:03:14.947Z,1013.89
2019-05-23T14:04:14.992Z,1013.94
2019-05-23T14:05:35.015Z,1013.91
2019-05-23T14:06:45.044Z,1013.91
2019-05-23T14:10:45.236Z,1013.83
2019-05-23T14:11:45.144Z,1013.87
2019-05-23T14:15:45.253Z,1013.86
2019-05-23T14:16:45.271Z,1013.92
2019-05-23T14:20:45.408Z,1013.78
2019-05-23T14:21:45.425Z,1013.8
2019-05-23T14:22:26.516Z,1013.78
2019-05-23T14:25:45.530Z,1013.78
2019-05-23T14:26:45.555Z,1013.75
2019-05-23T14:30:45.621Z,1013.69
2019-05-23T14:31:45.625Z,1013.67
2019-05-23T14:35:45.670Z,1013.64
2019-05-23T14:36:45.677Z,1013.68
2019-05-23T14:40:45.777Z,1013.71
2019-05-23T14:41:45.956Z,1013.68
2019-05-23T14:45:45.875Z,1013.63
2019-05-23T14:46:45.907Z,1013.64
2019-05-23T14:50:45.961Z,1013.52
2019-05-23T14:51:45.985Z,1013.61
2019-05-23T14:55:46.074Z,1013.53
2019-05-23T14:56:46.060Z,1013.56
2019-05-23T15:00:46.243Z,1013.43
2019-05-23T15:01:46.212Z,1013.49
2019-05-23T15:05:46.492Z,1013.4
2019-05-23T15:06:46.366Z,1013.42
2019-05-23T15:10:46.409Z,1013.39
2019-05-23T15:11:46.419Z,1013.39
2019-05-23T15:15:46.500Z,1013.34
2019-05-23T15:16:46.530Z,1013.38
2019-05-23T15:20:47.962Z,1013.34
2019-05-23T15:21:46.766Z,1013.41
2019-05-23T15:25:47.006Z,1013.38
2019-05-23T15:30:47.068Z,1013.32
2019-05-23T15:31:37.306Z,1013.37
2019-05-23T15:32:47.101Z,1013.42
2019-05-23T15:33:47.117Z,1013.37
2019-05-23T15:34:47.131Z,1013.38
2019-05-23T15:36:07.147Z,1013.37
2019-05-23T15:37:17.272Z,1013.42
2019-05-23T15:38:17.267Z,1013.34
2019-05-23T15:39:17.290Z,1013.27
2019-05-23T15:40:37.283Z,1013.29
2019-05-23T15:41:37.342Z,1013.25
2019-05-23T15:42:47.462Z,1013.26
2019-05-23T15:43:47.360Z,1013.26
2019-05-23T15:44:47.384Z,1013.34
2019-05-23T15:46:07.453Z,1013.29
2019-05-23T15:47:17.469Z,1013.3
2019-05-23T15:48:17.476Z,1013.24
2019-05-23T15:49:17.485Z,1013.28
2019-05-23T15:50:37.509Z,1013.3
2019-05-23T15:51:37.528Z,1013.25
2019-05-23T15:52:47.533Z,1013.28
2019-05-23T15:53:48.053Z,1013.3
2019-05-23T15:55:07.569Z,1013.31
2019-05-23T15:56:25.761Z,1013.26
2019-05-23T15:57:17.756Z,1013.21
2019-05-23T15:58:21.850Z,1013.28
2019-05-23T15:59:17.716Z,1013.22
2019-05-23T16:00:37.765Z,1013.2
2019-05-23T16:01:37.751Z,1013.2
2019-05-23T16:02:47.775Z,1013.2
2019-05-23T16:03:47.795Z,1013.13
2019-05-23T16:04:48.993Z,1013.1
2019-05-23T16:06:07.861Z,1013.17
2019-05-23T16:07:17.914Z,1013.12
2019-05-23T16:08:17.882Z,1013.12
2019-05-23T16:15:47.991Z,1013.05
2019-05-23T16:16:38.012Z,1013.1
2019-05-23T16:17:48.059Z,1012.96
2019-05-23T16:18:48.085Z,1013.12
2019-05-23T16:19:48.122Z,1013.06
2019-05-23T16:21:08.108Z,1013
2019-05-23T16:22:18.119Z,1012.87
2019-05-23T16:23:18.375Z,1012.96
2019-05-23T16:25:48.211Z,1012.88
2019-05-23T16:27:38.224Z,1012.99
2019-05-23T16:28:38.245Z,1013.01
2019-05-23T16:29:38.251Z,1012.98
2019-05-23T16:30:38.278Z,1012.95
2019-05-23T16:31:38.349Z,1012.96
2019-05-23T16:32:38.364Z,1012.96
2019-05-23T16:33:38.376Z,1012.82
2019-05-23T16:34:38.386Z,1012.95
2019-05-23T16:35:58.456Z,1012.84
2019-05-23T16:36:38.467Z,1012.87
2019-05-23T16:37:38.490Z,1012.92
2019-05-23T16:38:38.548Z,1012.96
2019-05-23T16:39:47.040Z,1013
2019-05-23T16:41:38.594Z,1012.95
2019-05-23T16:42:38.592Z,1013.02
2019-05-23T16:43:38.660Z,1013
2019-05-23T16:44:38.737Z,1013.04
2019-05-23T16:46:38.777Z,1012.99
2019-05-23T16:47:38.763Z,1012.95
2019-05-23T16:48:38.793Z,1013.04
2019-05-23T16:49:38.799Z,1012.93
2019-05-23T16:51:38.826Z,1012.97
2019-05-23T16:52:38.855Z,1013.01
2019-05-23T16:53:38.881Z,1012.96
2019-05-23T16:56:38.949Z,1012.94
2019-05-23T16:57:38.967Z,1013.06
2019-05-23T16:58:38.991Z,1013.01
2019-05-23T16:59:39.072Z,1012.96
2019-05-23T17:01:46.994Z,1012.99
2019-05-23T17:02:39.099Z,1013
2019-05-23T17:03:39.101Z,1013
2019-05-23T17:04:39.107Z,1012.98
2019-05-23T17:06:39.132Z,1013.1
2019-05-23T17:07:39.144Z,1012.99
2019-05-23T17:08:39.160Z,1013.05
2019-05-23T17:09:39.177Z,1013.05
2019-05-23T17:11:39.202Z,1013.1
2019-05-23T17:12:39.207Z,1012.95
2019-05-23T17:13:39.231Z,1012.97
2019-05-23T17:16:39.473Z,1013.11
2019-05-23T17:18:00.481Z,1013.07
2019-05-23T17:18:19.442Z,1013
2019-05-23T17:18:49.664Z,1013.07
2019-05-23T17:19:49.619Z,1013.06
2019-05-23T17:20:49.498Z,1013.15
2019-05-23T17:21:30.615Z,1013.11
2019-05-23T17:23:19.589Z,1013.11
2019-05-23T17:24:19.615Z,1013.14
2019-05-23T17:25:39.658Z,1013.04
2019-05-23T17:27:19.671Z,1013.1
2019-05-23T17:29:19.685Z,1013.12
2019-05-23T17:31:09.744Z,1013.14
2019-05-23T17:32:10.630Z,1013.13
2019-05-23T17:33:09.760Z,1013.13
2019-05-23T17:34:09.791Z,1013.13
2019-05-23T17:35:39.821Z,1013.13
2019-05-23T17:36:39.847Z,1013.13
2019-05-23T17:37:39.874Z,1013.12
2019-05-23T17:38:39.890Z,1013.18
2019-05-23T17:39:53.110Z,1013.19
2019-05-23T17:40:49.917Z,1013.19
2019-05-23T17:41:39.925Z,1013.19
2019-05-23T17:42:39.956Z,1013.13
2019-05-23T17:44:19.986Z,1013.18
2019-05-23T17:46:20.029Z,1013.2
2019-05-23T17:47:20.009Z,1013.21
2019-05-23T17:48:20.106Z,1013.16
2019-05-23T17:51:10.081Z,1013.21
2019-05-23T17:53:40.142Z,1013.21
2019-05-23T17:54:40.156Z,1013.21
2019-05-23T17:55:50.164Z,1013.21
2019-05-23T17:56:40.187Z,1013.21
2019-05-23T17:57:40.214Z,1013.21
2019-05-23T17:58:40.281Z,1013.21
2019-05-23T17:59:50.308Z,1013.21
2019-05-23T18:00:50.345Z,1013.21